sensor_id;sensor_type;location;lat;lon;timestamp;P1;durP1;ratioP1;P2;durP2;ratioP2
28714;SDS011;15886;49.170;14.572;2023-02-28T15:07:14;54.03;;;29.33;;
28714;SDS011;15886;49.170;14.572;2023-02-28T19:36:39;43.13;;;22.48;;
28714;SDS011;15886;49.170;14.572;2023-02-28T19:46:20;46.90;;;22.83;;
28714;SDS011;15886;49.170;14.572;2023-02-28T20:04:04;41.28;;;23.60;;
28714;SDS011;15886;49.170;14.572;2023-02-28T20:06:51;46.72;;;23.10;;
28714;SDS011;15886;49.170;14.572;2023-02-28T20:09:29;43.25;;;24.10;;
28714;SDS011;15886;49.170;14.572;2023-02-28T20:24:37;45.83;;;23.92;;
28714;SDS011;15886;49.170;14.572;2023-02-28T20:45:16;44.95;;;22.20;;
28714;SDS011;15886;49.170;14.572;2023-02-28T20:51:36;50.55;;;25.60;;
28714;SDS011;15886;49.170;14.572;2023-02-28T20:54:19;49.88;;;27.17;;
28714;SDS011;15886;49.170;14.572;2023-02-28T20:57:12;47.95;;;25.08;;
28714;SDS011;15886;49.170;14.572;2023-02-28T21:48:19;46.58;;;24.45;;
28714;SDS011;15886;49.170;14.572;2023-02-28T21:55:08;45.05;;;22.23;;
28714;SDS011;15886;49.170;14.572;2023-02-28T21:57:58;41.97;;;22.23;;
28714;SDS011;15886;49.170;14.572;2023-02-28T22:00:42;43.75;;;23.25;;
28714;SDS011;15886;49.170;14.572;2023-02-28T22:04:03;51.88;;;26.55;;
28714;SDS011;15886;49.170;14.572;2023-02-28T22:07:23;45.22;;;25.08;;
28714;SDS011;15886;49.170;14.572;2023-02-28T22:10:23;49.22;;;24.83;;
28714;SDS011;15886;49.170;14.572;2023-02-28T22:12:54;47.35;;;25.75;;
28714;SDS011;15886;49.170;14.572;2023-02-28T22:15:37;49.63;;;24.98;;
28714;SDS011;15886;49.170;14.572;2023-02-28T22:18:21;44.88;;;25.85;;
28714;SDS011;15886;49.170;14.572;2023-02-28T22:21:15;51.40;;;26.63;;
28714;SDS011;15886;49.170;14.572;2023-02-28T22:24:19;47.03;;;25.92;;
28714;SDS011;15886;49.170;14.572;2023-02-28T22:27:03;47.70;;;25.38;;
28714;SDS011;15886;49.170;14.572;2023-02-28T22:29:42;45.88;;;23.52;;
28714;SDS011;15886;49.170;14.572;2023-02-28T22:32:19;41.47;;;22.35;;
28714;SDS011;15886;49.170;14.572;2023-02-28T22:35:19;44.08;;;23.13;;
28714;SDS011;15886;49.170;14.572;2023-02-28T22:37:57;46.75;;;23.15;;
28714;SDS011;15886;49.170;14.572;2023-02-28T22:40:36;46.08;;;22.65;;
28714;SDS011;15886;49.170;14.572;2023-02-28T22:43:11;45.53;;;23.65;;
28714;SDS011;15886;49.170;14.572;2023-02-28T22:49:50;49.95;;;23.63;;
28714;SDS011;15886;49.170;14.572;2023-02-28T22:52:54;44.35;;;22.00;;
28714;SDS011;15886;49.170;14.572;2023-02-28T22:55:52;40.80;;;21.38;;
28714;SDS011;15886;49.170;14.572;2023-02-28T22:58:56;41.45;;;21.33;;
28714;SDS011;15886;49.170;14.572;2023-02-28T23:02:16;44.95;;;22.73;;
28714;SDS011;15886;49.170;14.572;2023-02-28T23:05:15;48.58;;;22.60;;
28714;SDS011;15886;49.170;14.572;2023-02-28T23:08:20;52.95;;;25.83;;
28714;SDS011;15886;49.170;14.572;2023-02-28T23:11:27;59.08;;;29.58;;
28714;SDS011;15886;49.170;14.572;2023-02-28T23:17:53;62.70;;;31.48;;
28714;SDS011;15886;49.170;14.572;2023-02-28T23:21:37;74.32;;;36.38;;
28714;SDS011;15886;49.170;14.572;2023-02-28T23:24:37;84.85;;;42.17;;
28714;SDS011;15886;49.170;14.572;2023-02-28T23:27:22;100.55;;;44.78;;
28714;SDS011;15886;49.170;14.572;2023-02-28T23:30:04;72.30;;;37.85;;
28714;SDS011;15886;49.170;14.572;2023-02-28T23:32:47;77.00;;;39.10;;
28714;SDS011;15886;49.170;14.572;2023-02-28T23:35:20;66.15;;;34.45;;
28714;SDS011;15886;49.170;14.572;2023-02-28T23:37:54;66.82;;;34.08;;
28714;SDS011;15886;49.170;14.572;2023-02-28T23:40:26;73.57;;;34.08;;
28714;SDS011;15886;49.170;14.572;2023-02-28T23:43:11;58.08;;;31.33;;
28714;SDS011;15886;49.170;14.572;2023-02-28T23:46:00;62.83;;;30.55;;
28714;SDS011;15886;49.170;14.572;2023-02-28T23:48:37;57.35;;;29.30;;
28714;SDS011;15886;49.170;14.572;2023-02-28T23:51:47;49.45;;;26.48;;
28714;SDS011;15886;49.170;14.572;2023-02-28T23:55:28;54.00;;;27.63;;
28714;SDS011;15886;49.170;14.572;2023-02-28T23:59:03;47.95;;;25.73;;
